Portada
METAR-TAF:

METAR-TAF

Aeroports :

Biàrritz, França

latitud: 43-28N, longitud: 001-32W, altitud: 75 m

Observació

L'informe es va fer fa 21 minuts, a les 14:00 UTC
Vent 5 kt del Nord/Nord-Oest, variant entre Oest/Nord-Oest i Nord/Nord-Est
Temperatura 19°C
Humitat 64%
Pressió 1021 hPa
Visibilitat 10 km o més
sense núvols per sota de 1500 mi sense presència de cumulonimbus.

METAR: LFBZ 191400Z AUTO 34005KT 290V020 CAVOK 19/12 Q1021 NOSIG

Hora: 16:21 (14:21 UTC)

Pronòstic

L'informe es va fer fa 3 hores i 21 minuts, a les 11:00 UTC
Pronòstic vàlid del 19 a les 12 UTC al 20 a les 12 UTC
Vent 5 kt del Oest/Nord-Oest
Visibilitat 10 km o més
sense núvols per sota de 1500 mi sense presència de cumulonimbus.
Probabilitat 30% :
Temporalment
l' 20 a les 02 UTC al 20 a les 06 UTC
Visibilitat: 3000 m
Cel ennuvolat a una alçada de 400 ft
boirina

TAF: LFBZ 191100Z 1912/2012 30005KT CAVOK PROB30 TEMPO 2002/2006 3000 BR BKN004

Observacions i pronòstics meteorològics de més de 4000 aeroports (METAR i TAF).

Les estacions disponibles són els punts grocs i vermells al mapa.

Posi el ratolí al punt desitjat per veure el nom de l'estació.

Feu clic per veure les observacions i els pronòstics meteorològics.

Per canviar el mapa: feu clic els botons verds amb una creu de color negre per apropar; al botó verd amb un guió per allunyar la imatge; o en les fletxes verdes per a mapes adjacents.


METAR-TAF: